Tuckerdale, North Carolina
Current Conditions -  °F | °C
As of 11:35 PM on Saturday 20 Dec 2014 (Local Time) from KGEV Reporting Station
Overcast Overcast  
Wind Chill: 34°   Ceiling: 2700
Heat Index: 34°   Visibility: 7mi
Dew Point: 33°   Wind: 0mph
Humidity: 96%   Direction: NA
Pressure: 30.16"   Gusts: NA
Location:  36.524°N, 81.538°W
Report Text: KGEV 210435Z AUTO 00000KT 7SM SCT008 SCT016 OVC027 01/01 A3016 RMK AO2 T00100005
Loading
Personal Weather Stations






























Interactive Weather Map New forecast layout! Learn more

10-Day Weather Forecast

Advertisements
Track Severe Weather on mobile